sensor_id;sensor_type;location;lat;lon;timestamp;P1;durP1;ratioP1;P2;durP2;ratioP2
12437;SDS011;6283;51.330;12.374;2023-02-11T00:00:49;24.87;;;13.87;;
12437;SDS011;6283;51.330;12.374;2023-02-11T00:03:15;27.50;;;14.57;;
12437;SDS011;6283;51.330;12.374;2023-02-11T00:05:41;29.27;;;13.90;;
12437;SDS011;6283;51.330;12.374;2023-02-11T00:08:06;28.77;;;14.93;;
12437;SDS011;6283;51.330;12.374;2023-02-11T00:10:32;27.60;;;14.73;;
12437;SDS011;6283;51.330;12.374;2023-02-11T00:12:57;24.07;;;13.30;;
12437;SDS011;6283;51.330;12.374;2023-02-11T00:15:23;27.87;;;14.67;;
12437;SDS011;6283;51.330;12.374;2023-02-11T00:17:49;29.13;;;15.33;;
12437;SDS011;6283;51.330;12.374;2023-02-11T00:20:14;25.77;;;13.53;;
12437;SDS011;6283;51.330;12.374;2023-02-11T00:22:40;25.70;;;14.53;;
12437;SDS011;6283;51.330;12.374;2023-02-11T00:25:05;30.47;;;14.57;;
12437;SDS011;6283;51.330;12.374;2023-02-11T00:27:31;24.90;;;14.10;;
12437;SDS011;6283;51.330;12.374;2023-02-11T00:29:57;35.10;;;16.47;;
12437;SDS011;6283;51.330;12.374;2023-02-11T00:32:24;28.77;;;14.63;;
12437;SDS011;6283;51.330;12.374;2023-02-11T00:34:53;31.03;;;15.30;;
12437;SDS011;6283;51.330;12.374;2023-02-11T00:37:19;27.27;;;15.23;;
12437;SDS011;6283;51.330;12.374;2023-02-11T00:39:45;29.27;;;15.07;;
12437;SDS011;6283;51.330;12.374;2023-02-11T00:42:12;26.00;;;14.37;;
12437;SDS011;6283;51.330;12.374;2023-02-11T00:44:39;27.20;;;14.73;;
12437;SDS011;6283;51.330;12.374;2023-02-11T00:47:04;30.23;;;14.53;;
12437;SDS011;6283;51.330;12.374;2023-02-11T00:49:30;24.50;;;13.67;;
12437;SDS011;6283;51.330;12.374;2023-02-11T00:51:56;30.80;;;15.40;;
12437;SDS011;6283;51.330;12.374;2023-02-11T00:54:21;28.77;;;14.87;;
12437;SDS011;6283;51.330;12.374;2023-02-11T00:56:47;29.10;;;15.03;;
12437;SDS011;6283;51.330;12.374;2023-02-11T00:59:12;30.60;;;16.07;;
12437;SDS011;6283;51.330;12.374;2023-02-11T01:01:38;26.13;;;13.73;;
12437;SDS011;6283;51.330;12.374;2023-02-11T01:04:03;27.60;;;14.63;;
12437;SDS011;6283;51.330;12.374;2023-02-11T01:06:29;25.80;;;14.60;;
12437;SDS011;6283;51.330;12.374;2023-02-11T01:08:55;28.70;;;14.40;;
12437;SDS011;6283;51.330;12.374;2023-02-11T01:11:21;24.60;;;13.83;;
12437;SDS011;6283;51.330;12.374;2023-02-11T01:13:47;30.93;;;15.23;;
12437;SDS011;6283;51.330;12.374;2023-02-11T01:16:13;25.83;;;14.30;;
12437;SDS011;6283;51.330;12.374;2023-02-11T01:18:39;25.70;;;14.17;;
12437;SDS011;6283;51.330;12.374;2023-02-11T01:21:08;22.67;;;13.43;;
12437;SDS011;6283;51.330;12.374;2023-02-11T01:23:34;26.73;;;14.20;;
12437;SDS011;6283;51.330;12.374;2023-02-11T01:25:59;25.90;;;14.67;;
12437;SDS011;6283;51.330;12.374;2023-02-11T01:28:26;29.00;;;14.77;;
12437;SDS011;6283;51.330;12.374;2023-02-11T01:30:53;23.93;;;13.63;;
12437;SDS011;6283;51.330;12.374;2023-02-11T01:33:20;23.33;;;14.03;;
12437;SDS011;6283;51.330;12.374;2023-02-11T01:35:46;25.87;;;14.47;;
12437;SDS011;6283;51.330;12.374;2023-02-11T01:38:16;26.03;;;14.07;;
12437;SDS011;6283;51.330;12.374;2023-02-11T01:40:51;27.23;;;13.73;;
12437;SDS011;6283;51.330;12.374;2023-02-11T01:43:17;26.33;;;12.93;;
12437;SDS011;6283;51.330;12.374;2023-02-11T01:48:11;24.27;;;13.20;;
12437;SDS011;6283;51.330;12.374;2023-02-11T01:50:39;24.87;;;13.30;;
12437;SDS011;6283;51.330;12.374;2023-02-11T01:53:06;22.97;;;12.90;;
12437;SDS011;6283;51.330;12.374;2023-02-11T01:55:52;26.27;;;13.40;;
12437;SDS011;6283;51.330;12.374;2023-02-11T01:58:38;25.90;;;13.17;;
12437;SDS011;6283;51.330;12.374;2023-02-11T02:01:07;24.97;;;13.47;;
12437;SDS011;6283;51.330;12.374;2023-02-11T02:03:38;25.10;;;13.50;;
12437;SDS011;6283;51.330;12.374;2023-02-11T02:06:09;27.00;;;14.30;;
12437;SDS011;6283;51.330;12.374;2023-02-11T02:08:54;29.27;;;14.70;;
12437;SDS011;6283;51.330;12.374;2023-02-11T02:11:26;26.57;;;14.03;;
12437;SDS011;6283;51.330;12.374;2023-02-11T02:13:51;29.17;;;14.43;;
12437;SDS011;6283;51.330;12.374;2023-02-11T02:16:18;24.73;;;12.60;;
12437;SDS011;6283;51.330;12.374;2023-02-11T02:38:00;26.13;;;13.50;;
12437;SDS011;6283;51.330;12.374;2023-02-11T02:40:36;24.07;;;13.70;;
12437;SDS011;6283;51.330;12.374;2023-02-11T02:43:07;24.87;;;14.00;;
12437;SDS011;6283;51.330;12.374;2023-02-11T02:45:34;25.13;;;13.73;;
12437;SDS011;6283;51.330;12.374;2023-02-11T02:48:00;23.47;;;13.57;;
12437;SDS011;6283;51.330;12.374;2023-02-11T02:50:27;28.77;;;13.73;;
12437;SDS011;6283;51.330;12.374;2023-02-11T02:58:53;27.13;;;13.93;;
12437;SDS011;6283;51.330;12.374;2023-02-11T03:04:20;23.93;;;14.33;;
12437;SDS011;6283;51.330;12.374;2023-02-11T03:06:48;26.43;;;14.50;;
12437;SDS011;6283;51.330;12.374;2023-02-11T03:09:21;24.17;;;13.53;;
12437;SDS011;6283;51.330;12.374;2023-02-11T03:11:59;23.87;;;13.80;;
12437;SDS011;6283;51.330;12.374;2023-02-11T03:14:27;26.63;;;14.53;;
12437;SDS011;6283;51.330;12.374;2023-02-11T03:16:55;28.30;;;14.83;;
12437;SDS011;6283;51.330;12.374;2023-02-11T03:19:23;25.43;;;14.60;;
12437;SDS011;6283;51.330;12.374;2023-02-11T03:21:54;24.87;;;14.63;;
12437;SDS011;6283;51.330;12.374;2023-02-11T03:24:28;24.80;;;14.17;;
12437;SDS011;6283;51.330;12.374;2023-02-11T03:26:58;26.80;;;14.70;;
12437;SDS011;6283;51.330;12.374;2023-02-11T03:34:58;26.50;;;15.47;;
12437;SDS011;6283;51.330;12.374;2023-02-11T03:37:34;23.77;;;15.30;;
12437;SDS011;6283;51.330;12.374;2023-02-11T03:40:22;27.37;;;15.47;;
12437;SDS011;6283;51.330;12.374;2023-02-11T03:42:58;25.37;;;14.97;;
12437;SDS011;6283;51.330;12.374;2023-02-11T03:45:29;25.57;;;15.27;;
12437;SDS011;6283;51.330;12.374;2023-02-11T03:48:03;27.00;;;15.87;;
12437;SDS011;6283;51.330;12.374;2023-02-11T03:50:36;25.77;;;15.03;;
12437;SDS011;6283;51.330;12.374;2023-02-11T03:53:03;27.77;;;15.07;;
12437;SDS011;6283;51.330;12.374;2023-02-11T03:55:31;26.73;;;16.00;;
12437;SDS011;6283;51.330;12.374;2023-02-11T03:58:00;27.00;;;14.90;;
12437;SDS011;6283;51.330;12.374;2023-02-11T04:00:29;26.43;;;15.23;;
12437;SDS011;6283;51.330;12.374;2023-02-11T04:02:56;28.70;;;15.70;;
12437;SDS011;6283;51.330;12.374;2023-02-11T04:05:22;30.60;;;16.30;;
12437;SDS011;6283;51.330;12.374;2023-02-11T04:07:47;22.10;;;13.93;;
12437;SDS011;6283;51.330;12.374;2023-02-11T04:10:13;26.83;;;15.27;;
12437;SDS011;6283;51.330;12.374;2023-02-11T04:12:39;29.63;;;15.47;;
12437;SDS011;6283;51.330;12.374;2023-02-11T04:15:04;26.30;;;15.13;;
12437;SDS011;6283;51.330;12.374;2023-02-11T04:17:31;20.27;;;13.70;;
12437;SDS011;6283;51.330;12.374;2023-02-11T04:19:56;25.07;;;15.03;;
12437;SDS011;6283;51.330;12.374;2023-02-11T04:22:22;28.10;;;15.10;;
12437;SDS011;6283;51.330;12.374;2023-02-11T04:24:47;25.33;;;14.03;;
12437;SDS011;6283;51.330;12.374;2023-02-11T04:27:13;24.43;;;13.97;;
12437;SDS011;6283;51.330;12.374;2023-02-11T04:29:39;30.43;;;15.40;;
12437;SDS011;6283;51.330;12.374;2023-02-11T04:32:04;24.80;;;14.60;;
12437;SDS011;6283;51.330;12.374;2023-02-11T04:34:30;23.10;;;13.73;;
12437;SDS011;6283;51.330;12.374;2023-02-11T04:36:56;28.43;;;15.83;;
12437;SDS011;6283;51.330;12.374;2023-02-11T04:39:21;23.70;;;13.43;;
12437;SDS011;6283;51.330;12.374;2023-02-11T04:41:47;25.40;;;14.00;;
12437;SDS011;6283;51.330;12.374;2023-02-11T04:44:13;23.07;;;13.67;;
12437;SDS011;6283;51.330;12.374;2023-02-11T04:46:38;25.60;;;14.20;;
12437;SDS011;6283;51.330;12.374;2023-02-11T04:49:04;29.17;;;15.17;;
12437;SDS011;6283;51.330;12.374;2023-02-11T04:51:30;27.37;;;15.20;;
12437;SDS011;6283;51.330;12.374;2023-02-11T04:53:56;24.70;;;13.83;;
12437;SDS011;6283;51.330;12.374;2023-02-11T04:56:21;25.20;;;14.53;;
12437;SDS011;6283;51.330;12.374;2023-02-11T04:58:47;25.57;;;14.97;;
12437;SDS011;6283;51.330;12.374;2023-02-11T05:01:14;27.87;;;14.90;;
12437;SDS011;6283;51.330;12.374;2023-02-11T05:03:40;24.93;;;13.73;;
12437;SDS011;6283;51.330;12.374;2023-02-11T05:06:06;22.33;;;14.27;;
12437;SDS011;6283;51.330;12.374;2023-02-11T05:08:33;27.50;;;15.17;;
12437;SDS011;6283;51.330;12.374;2023-02-11T05:10:59;24.67;;;14.00;;
12437;SDS011;6283;51.330;12.374;2023-02-11T05:13:26;23.43;;;13.40;;
12437;SDS011;6283;51.330;12.374;2023-02-11T05:15:52;28.30;;;15.80;;
12437;SDS011;6283;51.330;12.374;2023-02-11T05:18:18;27.10;;;14.47;;
12437;SDS011;6283;51.330;12.374;2023-02-11T05:20:43;24.93;;;14.43;;
12437;SDS011;6283;51.330;12.374;2023-02-11T05:23:09;26.03;;;14.57;;
12437;SDS011;6283;51.330;12.374;2023-02-11T05:25:36;29.23;;;15.43;;
12437;SDS011;6283;51.330;12.374;2023-02-11T05:28:02;25.80;;;14.97;;
12437;SDS011;6283;51.330;12.374;2023-02-11T05:30:28;28.23;;;14.67;;
12437;SDS011;6283;51.330;12.374;2023-02-11T05:32:54;25.87;;;13.83;;
12437;SDS011;6283;51.330;12.374;2023-02-11T05:35:20;28.37;;;15.10;;
12437;SDS011;6283;51.330;12.374;2023-02-11T05:37:46;23.90;;;14.00;;
12437;SDS011;6283;51.330;12.374;2023-02-11T05:40:12;29.47;;;14.83;;
12437;SDS011;6283;51.330;12.374;2023-02-11T05:42:37;27.67;;;14.40;;
12437;SDS011;6283;51.330;12.374;2023-02-11T05:45:03;27.80;;;15.60;;
12437;SDS011;6283;51.330;12.374;2023-02-11T05:47:29;25.80;;;15.23;;
12437;SDS011;6283;51.330;12.374;2023-02-11T05:49:55;32.40;;;16.73;;
12437;SDS011;6283;51.330;12.374;2023-02-11T05:52:21;32.67;;;16.43;;
12437;SDS011;6283;51.330;12.374;2023-02-11T05:54:47;29.87;;;16.30;;
12437;SDS011;6283;51.330;12.374;2023-02-11T05:57:13;33.03;;;16.20;;
12437;SDS011;6283;51.330;12.374;2023-02-11T05:59:39;27.60;;;14.53;;
12437;SDS011;6283;51.330;12.374;2023-02-11T06:02:04;26.83;;;15.93;;
12437;SDS011;6283;51.330;12.374;2023-02-11T06:04:32;24.93;;;14.80;;
12437;SDS011;6283;51.330;12.374;2023-02-11T06:06:58;34.20;;;17.70;;
12437;SDS011;6283;51.330;12.374;2023-02-11T06:09:23;33.27;;;17.50;;
12437;SDS011;6283;51.330;12.374;2023-02-11T06:11:50;27.27;;;16.63;;
12437;SDS011;6283;51.330;12.374;2023-02-11T06:14:15;31.90;;;16.30;;
12437;SDS011;6283;51.330;12.374;2023-02-11T06:16:41;29.27;;;16.97;;
12437;SDS011;6283;51.330;12.374;2023-02-11T06:19:07;28.90;;;16.53;;
12437;SDS011;6283;51.330;12.374;2023-02-11T06:21:32;34.47;;;17.47;;
12437;SDS011;6283;51.330;12.374;2023-02-11T06:23:58;32.67;;;17.30;;
12437;SDS011;6283;51.330;12.374;2023-02-11T06:26:24;35.00;;;17.47;;
12437;SDS011;6283;51.330;12.374;2023-02-11T06:28:49;30.23;;;16.63;;
12437;SDS011;6283;51.330;12.374;2023-02-11T06:31:15;35.27;;;17.63;;
12437;SDS011;6283;51.330;12.374;2023-02-11T06:33:41;33.73;;;17.50;;
12437;SDS011;6283;51.330;12.374;2023-02-11T06:36:17;33.60;;;18.07;;
12437;SDS011;6283;51.330;12.374;2023-02-11T06:38:44;34.80;;;18.33;;
12437;SDS011;6283;51.330;12.374;2023-02-11T06:41:11;32.97;;;18.00;;
12437;SDS011;6283;51.330;12.374;2023-02-11T06:43:38;31.00;;;17.80;;
12437;SDS011;6283;51.330;12.374;2023-02-11T06:46:05;37.13;;;18.87;;
12437;SDS011;6283;51.330;12.374;2023-02-11T06:48:30;32.73;;;18.10;;
12437;SDS011;6283;51.330;12.374;2023-02-11T06:50:59;33.47;;;17.73;;
12437;SDS011;6283;51.330;12.374;2023-02-11T06:53:27;33.40;;;18.33;;
12437;SDS011;6283;51.330;12.374;2023-02-11T06:55:53;32.33;;;17.30;;
12437;SDS011;6283;51.330;12.374;2023-02-11T06:58:18;35.83;;;17.53;;
12437;SDS011;6283;51.330;12.374;2023-02-11T07:00:44;33.60;;;18.77;;
12437;SDS011;6283;51.330;12.374;2023-02-11T07:03:10;31.93;;;18.00;;
12437;SDS011;6283;51.330;12.374;2023-02-11T07:05:35;33.43;;;18.00;;
12437;SDS011;6283;51.330;12.374;2023-02-11T07:08:02;37.77;;;19.17;;
12437;SDS011;6283;51.330;12.374;2023-02-11T07:10:28;33.80;;;17.10;;
12437;SDS011;6283;51.330;12.374;2023-02-11T07:12:54;31.80;;;17.97;;
12437;SDS011;6283;51.330;12.374;2023-02-11T07:15:20;32.43;;;17.23;;
12437;SDS011;6283;51.330;12.374;2023-02-11T07:17:45;34.30;;;18.27;;
12437;SDS011;6283;51.330;12.374;2023-02-11T07:20:11;33.17;;;17.23;;
12437;SDS011;6283;51.330;12.374;2023-02-11T07:22:38;35.97;;;18.97;;
12437;SDS011;6283;51.330;12.374;2023-02-11T07:25:04;38.13;;;19.90;;
12437;SDS011;6283;51.330;12.374;2023-02-11T07:27:30;37.23;;;19.90;;
12437;SDS011;6283;51.330;12.374;2023-02-11T07:29:55;33.43;;;18.63;;
12437;SDS011;6283;51.330;12.374;2023-02-11T07:32:21;35.63;;;18.30;;
12437;SDS011;6283;51.330;12.374;2023-02-11T07:34:46;32.77;;;17.77;;
12437;SDS011;6283;51.330;12.374;2023-02-11T07:37:13;33.83;;;18.97;;
12437;SDS011;6283;51.330;12.374;2023-02-11T07:39:39;32.83;;;18.17;;
12437;SDS011;6283;51.330;12.374;2023-02-11T07:42:04;34.60;;;19.13;;
12437;SDS011;6283;51.330;12.374;2023-02-11T07:44:30;32.87;;;17.83;;
12437;SDS011;6283;51.330;12.374;2023-02-11T07:46:57;37.53;;;18.10;;
12437;SDS011;6283;51.330;12.374;2023-02-11T07:49:23;32.93;;;18.00;;
12437;SDS011;6283;51.330;12.374;2023-02-11T07:51:49;31.77;;;17.60;;
12437;SDS011;6283;51.330;12.374;2023-02-11T07:54:15;32.13;;;18.23;;
12437;SDS011;6283;51.330;12.374;2023-02-11T07:56:41;35.13;;;18.30;;
12437;SDS011;6283;51.330;12.374;2023-02-11T07:59:07;31.17;;;18.23;;
12437;SDS011;6283;51.330;12.374;2023-02-11T08:01:33;30.57;;;16.53;;
12437;SDS011;6283;51.330;12.374;2023-02-11T08:03:59;34.67;;;17.67;;
12437;SDS011;6283;51.330;12.374;2023-02-11T08:06:27;36.47;;;19.20;;
12437;SDS011;6283;51.330;12.374;2023-02-11T08:08:57;31.80;;;17.57;;
12437;SDS011;6283;51.330;12.374;2023-02-11T08:11:27;33.10;;;18.03;;
12437;SDS011;6283;51.330;12.374;2023-02-11T08:13:53;35.67;;;19.33;;
12437;SDS011;6283;51.330;12.374;2023-02-11T08:18:54;29.87;;;17.67;;
12437;SDS011;6283;51.330;12.374;2023-02-11T08:21:21;37.20;;;19.30;;
12437;SDS011;6283;51.330;12.374;2023-02-11T08:23:48;31.03;;;18.23;;
12437;SDS011;6283;51.330;12.374;2023-02-11T08:26:21;36.67;;;19.40;;
12437;SDS011;6283;51.330;12.374;2023-02-11T08:28:49;35.60;;;20.00;;
12437;SDS011;6283;51.330;12.374;2023-02-11T08:31:17;36.40;;;18.80;;
12437;SDS011;6283;51.330;12.374;2023-02-11T08:33:44;33.23;;;18.47;;
12437;SDS011;6283;51.330;12.374;2023-02-11T08:36:11;33.73;;;18.50;;
12437;SDS011;6283;51.330;12.374;2023-02-11T08:38:39;36.13;;;19.23;;
12437;SDS011;6283;51.330;12.374;2023-02-11T08:41:05;33.80;;;18.13;;
12437;SDS011;6283;51.330;12.374;2023-02-11T08:43:32;32.97;;;19.03;;
12437;SDS011;6283;51.330;12.374;2023-02-11T08:45:58;31.97;;;17.97;;
12437;SDS011;6283;51.330;12.374;2023-02-11T08:48:24;33.10;;;18.30;;
12437;SDS011;6283;51.330;12.374;2023-02-11T08:50:50;31.13;;;18.67;;
12437;SDS011;6283;51.330;12.374;2023-02-11T08:53:16;29.20;;;17.60;;
12437;SDS011;6283;51.330;12.374;2023-02-11T08:55:51;34.77;;;18.37;;
12437;SDS011;6283;51.330;12.374;2023-02-11T08:58:18;34.47;;;19.03;;
12437;SDS011;6283;51.330;12.374;2023-02-11T09:00:44;29.87;;;18.67;;
12437;SDS011;6283;51.330;12.374;2023-02-11T09:03:11;32.97;;;17.60;;
12437;SDS011;6283;51.330;12.374;2023-02-11T09:05:44;32.40;;;17.63;;
12437;SDS011;6283;51.330;12.374;2023-02-11T09:08:11;34.83;;;19.50;;
12437;SDS011;6283;51.330;12.374;2023-02-11T09:10:37;30.97;;;18.50;;
12437;SDS011;6283;51.330;12.374;2023-02-11T09:13:03;30.97;;;18.10;;
12437;SDS011;6283;51.330;12.374;2023-02-11T09:15:29;32.90;;;18.40;;
12437;SDS011;6283;51.330;12.374;2023-02-11T09:17:55;32.40;;;18.23;;
12437;SDS011;6283;51.330;12.374;2023-02-11T09:20:21;32.90;;;18.73;;
12437;SDS011;6283;51.330;12.374;2023-02-11T09:22:47;30.93;;;18.27;;
12437;SDS011;6283;51.330;12.374;2023-02-11T09:25:13;33.20;;;18.50;;
12437;SDS011;6283;51.330;12.374;2023-02-11T09:27:39;33.67;;;19.23;;
12437;SDS011;6283;51.330;12.374;2023-02-11T09:30:05;34.63;;;18.67;;
12437;SDS011;6283;51.330;12.374;2023-02-11T09:32:31;32.17;;;19.00;;
12437;SDS011;6283;51.330;12.374;2023-02-11T09:34:56;32.87;;;17.83;;
12437;SDS011;6283;51.330;12.374;2023-02-11T09:37:22;32.10;;;18.57;;
12437;SDS011;6283;51.330;12.374;2023-02-11T09:39:47;37.37;;;20.40;;
12437;SDS011;6283;51.330;12.374;2023-02-11T09:42:27;36.07;;;18.73;;
12437;SDS011;6283;51.330;12.374;2023-02-11T09:45:23;32.57;;;18.90;;
12437;SDS011;6283;51.330;12.374;2023-02-11T09:47:53;33.83;;;18.87;;
12437;SDS011;6283;51.330;12.374;2023-02-11T09:50:23;32.47;;;18.47;;
12437;SDS011;6283;51.330;12.374;2023-02-11T09:53:05;33.17;;;18.80;;
12437;SDS011;6283;51.330;12.374;2023-02-11T09:55:35;31.80;;;17.87;;
12437;SDS011;6283;51.330;12.374;2023-02-11T09:58:12;36.90;;;18.53;;
12437;SDS011;6283;51.330;12.374;2023-02-11T10:00:46;28.40;;;16.97;;
12437;SDS011;6283;51.330;12.374;2023-02-11T10:23:21;30.97;;;16.67;;
12437;SDS011;6283;51.330;12.374;2023-02-11T10:25:50;30.93;;;18.03;;
12437;SDS011;6283;51.330;12.374;2023-02-11T10:28:33;29.23;;;17.27;;
12437;SDS011;6283;51.330;12.374;2023-02-11T10:36:30;28.30;;;17.43;;
12437;SDS011;6283;51.330;12.374;2023-02-11T10:38:59;30.17;;;17.80;;
12437;SDS011;6283;51.330;12.374;2023-02-11T10:41:46;32.20;;;17.30;;
12437;SDS011;6283;51.330;12.374;2023-02-11T10:44:28;28.67;;;17.67;;
12437;SDS011;6283;51.330;12.374;2023-02-11T10:47:04;27.17;;;16.67;;
12437;SDS011;6283;51.330;12.374;2023-02-11T10:49:46;29.13;;;17.47;;
12437;SDS011;6283;51.330;12.374;2023-02-11T10:54:38;33.23;;;17.47;;
12437;SDS011;6283;51.330;12.374;2023-02-11T10:57:04;31.13;;;16.80;;
12437;SDS011;6283;51.330;12.374;2023-02-11T10:59:34;29.30;;;16.43;;
12437;SDS011;6283;51.330;12.374;2023-02-11T11:02:05;28.60;;;16.80;;
12437;SDS011;6283;51.330;12.374;2023-02-11T11:04:55;27.83;;;16.50;;
12437;SDS011;6283;51.330;12.374;2023-02-11T11:07:30;26.27;;;16.87;;
12437;SDS011;6283;51.330;12.374;2023-02-11T11:10:10;30.57;;;16.37;;
12437;SDS011;6283;51.330;12.374;2023-02-11T11:15:48;28.53;;;16.70;;
12437;SDS011;6283;51.330;12.374;2023-02-11T11:18:33;30.83;;;16.93;;
12437;SDS011;6283;51.330;12.374;2023-02-11T11:21:00;28.23;;;17.53;;
12437;SDS011;6283;51.330;12.374;2023-02-11T11:23:30;29.40;;;17.67;;
12437;SDS011;6283;51.330;12.374;2023-02-11T11:26:06;31.00;;;18.40;;
12437;SDS011;6283;51.330;12.374;2023-02-11T11:31:16;29.40;;;16.50;;
12437;SDS011;6283;51.330;12.374;2023-02-11T11:33:45;27.10;;;16.60;;
12437;SDS011;6283;51.330;12.374;2023-02-11T11:36:45;26.33;;;16.07;;
12437;SDS011;6283;51.330;12.374;2023-02-11T11:39:20;26.17;;;16.73;;
12437;SDS011;6283;51.330;12.374;2023-02-11T11:41:57;28.60;;;17.30;;
12437;SDS011;6283;51.330;12.374;2023-02-11T11:46:54;28.47;;;17.37;;
12437;SDS011;6283;51.330;12.374;2023-02-11T11:49:37;29.33;;;16.10;;
12437;SDS011;6283;51.330;12.374;2023-02-11T11:54:57;24.27;;;16.33;;
12437;SDS011;6283;51.330;12.374;2023-02-11T11:57:37;31.37;;;16.67;;
12437;SDS011;6283;51.330;12.374;2023-02-11T12:00:03;28.37;;;16.83;;
12437;SDS011;6283;51.330;12.374;2023-02-11T12:05:14;30.27;;;19.13;;
12437;SDS011;6283;51.330;12.374;2023-02-11T12:16:03;26.73;;;15.10;;
12437;SDS011;6283;51.330;12.374;2023-02-11T12:21:27;26.07;;;15.70;;
12437;SDS011;6283;51.330;12.374;2023-02-11T12:25:04;26.20;;;15.40;;
12437;SDS011;6283;51.330;12.374;2023-02-11T12:27:45;27.37;;;15.73;;
12437;SDS011;6283;51.330;12.374;2023-02-11T12:30:48;24.80;;;16.03;;
12437;SDS011;6283;51.330;12.374;2023-02-11T12:43:34;28.50;;;15.97;;
12437;SDS011;6283;51.330;12.374;2023-02-11T12:52:30;25.50;;;16.37;;
12437;SDS011;6283;51.330;12.374;2023-02-11T12:55:20;23.17;;;15.00;;
12437;SDS011;6283;51.330;12.374;2023-02-11T12:57:49;24.40;;;14.70;;
12437;SDS011;6283;51.330;12.374;2023-02-11T13:00:17;25.23;;;15.60;;
12437;SDS011;6283;51.330;12.374;2023-02-11T13:07:49;32.40;;;16.70;;
12437;SDS011;6283;51.330;12.374;2023-02-11T13:13:20;23.70;;;14.70;;
12437;SDS011;6283;51.330;12.374;2023-02-11T13:15:53;24.37;;;14.03;;
12437;SDS011;6283;51.330;12.374;2023-02-11T13:32:07;27.30;;;16.17;;
12437;SDS011;6283;51.330;12.374;2023-02-11T13:37:11;29.40;;;16.60;;
12437;SDS011;6283;51.330;12.374;2023-02-11T13:40:02;27.87;;;16.53;;
12437;SDS011;6283;51.330;12.374;2023-02-11T13:42:28;24.93;;;16.03;;
12437;SDS011;6283;51.330;12.374;2023-02-11T13:44:56;31.73;;;16.77;;
12437;SDS011;6283;51.330;12.374;2023-02-11T13:47:31;29.43;;;15.27;;
12437;SDS011;6283;51.330;12.374;2023-02-11T13:49:59;25.20;;;14.57;;
12437;SDS011;6283;51.330;12.374;2023-02-11T13:52:31;26.80;;;16.07;;
12437;SDS011;6283;51.330;12.374;2023-02-11T13:57:37;24.90;;;14.80;;
12437;SDS011;6283;51.330;12.374;2023-02-11T14:03:43;25.27;;;14.93;;
12437;SDS011;6283;51.330;12.374;2023-02-11T14:06:13;25.13;;;14.53;;
12437;SDS011;6283;51.330;12.374;2023-02-11T14:11:45;25.57;;;15.53;;
12437;SDS011;6283;51.330;12.374;2023-02-11T14:14:19;25.37;;;14.57;;
12437;SDS011;6283;51.330;12.374;2023-02-11T14:27:00;27.80;;;16.00;;
12437;SDS011;6283;51.330;12.374;2023-02-11T14:29:46;25.37;;;14.37;;
12437;SDS011;6283;51.330;12.374;2023-02-11T14:43:53;26.37;;;14.57;;
12437;SDS011;6283;51.330;12.374;2023-02-11T14:46:24;24.40;;;13.87;;
12437;SDS011;6283;51.330;12.374;2023-02-11T14:48:52;27.17;;;15.13;;
12437;SDS011;6283;51.330;12.374;2023-02-11T14:51:22;24.87;;;14.73;;
12437;SDS011;6283;51.330;12.374;2023-02-11T14:53:51;23.70;;;14.70;;
12437;SDS011;6283;51.330;12.374;2023-02-11T14:56:23;25.70;;;14.77;;
12437;SDS011;6283;51.330;12.374;2023-02-11T14:58:55;24.57;;;14.93;;
12437;SDS011;6283;51.330;12.374;2023-02-11T15:01:23;25.67;;;14.70;;
12437;SDS011;6283;51.330;12.374;2023-02-11T15:03:57;23.20;;;14.90;;
12437;SDS011;6283;51.330;12.374;2023-02-11T15:06:27;24.87;;;14.47;;
12437;SDS011;6283;51.330;12.374;2023-02-11T15:09:02;22.67;;;14.73;;
12437;SDS011;6283;51.330;12.374;2023-02-11T15:11:31;25.23;;;15.13;;
12437;SDS011;6283;51.330;12.374;2023-02-11T15:14:15;25.60;;;15.03;;
12437;SDS011;6283;51.330;12.374;2023-02-11T15:16:43;22.10;;;13.57;;
12437;SDS011;6283;51.330;12.374;2023-02-11T15:19:21;25.03;;;15.20;;
12437;SDS011;6283;51.330;12.374;2023-02-11T15:21:49;24.90;;;14.60;;
12437;SDS011;6283;51.330;12.374;2023-02-11T15:24:24;25.47;;;14.97;;
12437;SDS011;6283;51.330;12.374;2023-02-11T15:26:58;24.17;;;14.50;;
12437;SDS011;6283;51.330;12.374;2023-02-11T15:29:25;23.90;;;13.63;;
12437;SDS011;6283;51.330;12.374;2023-02-11T15:34:33;21.73;;;13.37;;
12437;SDS011;6283;51.330;12.374;2023-02-11T15:37:01;22.50;;;13.33;;
12437;SDS011;6283;51.330;12.374;2023-02-11T15:39:33;24.90;;;14.07;;
12437;SDS011;6283;51.330;12.374;2023-02-11T15:47:50;23.03;;;12.73;;
12437;SDS011;6283;51.330;12.374;2023-02-11T15:50:22;21.93;;;12.87;;
12437;SDS011;6283;51.330;12.374;2023-02-11T15:52:52;21.27;;;12.80;;
12437;SDS011;6283;51.330;12.374;2023-02-11T15:55:19;21.97;;;12.73;;
12437;SDS011;6283;51.330;12.374;2023-02-11T15:57:45;21.40;;;12.23;;
12437;SDS011;6283;51.330;12.374;2023-02-11T16:00:16;20.90;;;12.70;;
12437;SDS011;6283;51.330;12.374;2023-02-11T16:02:45;18.77;;;11.67;;
12437;SDS011;6283;51.330;12.374;2023-02-11T16:07:54;21.33;;;12.73;;
12437;SDS011;6283;51.330;12.374;2023-02-11T16:10:32;19.97;;;12.03;;
12437;SDS011;6283;51.330;12.374;2023-02-11T16:13:18;21.27;;;11.50;;
12437;SDS011;6283;51.330;12.374;2023-02-11T16:18:22;21.70;;;12.27;;
12437;SDS011;6283;51.330;12.374;2023-02-11T16:21:03;18.40;;;11.33;;
12437;SDS011;6283;51.330;12.374;2023-02-11T16:23:32;20.97;;;11.23;;
12437;SDS011;6283;51.330;12.374;2023-02-11T16:26:06;22.90;;;12.80;;
12437;SDS011;6283;51.330;12.374;2023-02-11T16:28:52;18.07;;;11.03;;
12437;SDS011;6283;51.330;12.374;2023-02-11T16:31:34;19.70;;;11.30;;
12437;SDS011;6283;51.330;12.374;2023-02-11T16:34:02;18.77;;;11.47;;
12437;SDS011;6283;51.330;12.374;2023-02-11T16:36:44;19.70;;;12.10;;
12437;SDS011;6283;51.330;12.374;2023-02-11T16:39:10;20.73;;;11.60;;
12437;SDS011;6283;51.330;12.374;2023-02-11T16:41:37;19.37;;;11.50;;
12437;SDS011;6283;51.330;12.374;2023-02-11T16:44:02;19.70;;;10.73;;
12437;SDS011;6283;51.330;12.374;2023-02-11T16:46:28;19.67;;;11.33;;
12437;SDS011;6283;51.330;12.374;2023-02-11T16:48:55;23.10;;;11.93;;
12437;SDS011;6283;51.330;12.374;2023-02-11T16:51:22;17.83;;;11.30;;
12437;SDS011;6283;51.330;12.374;2023-02-11T16:53:48;19.43;;;10.80;;
12437;SDS011;6283;51.330;12.374;2023-02-11T16:56:15;22.07;;;10.90;;
12437;SDS011;6283;51.330;12.374;2023-02-11T16:58:42;18.10;;;11.20;;
12437;SDS011;6283;51.330;12.374;2023-02-11T17:01:09;16.27;;;9.83;;
12437;SDS011;6283;51.330;12.374;2023-02-11T17:03:35;18.87;;;11.83;;
12437;SDS011;6283;51.330;12.374;2023-02-11T17:06:04;18.87;;;11.33;;
12437;SDS011;6283;51.330;12.374;2023-02-11T17:08:33;18.97;;;11.20;;
12437;SDS011;6283;51.330;12.374;2023-02-11T17:10:59;19.17;;;11.93;;
12437;SDS011;6283;51.330;12.374;2023-02-11T17:13:25;21.20;;;11.83;;
12437;SDS011;6283;51.330;12.374;2023-02-11T17:15:51;21.17;;;12.83;;
12437;SDS011;6283;51.330;12.374;2023-02-11T17:18:17;21.27;;;11.80;;
12437;SDS011;6283;51.330;12.374;2023-02-11T17:20:42;22.23;;;12.87;;
12437;SDS011;6283;51.330;12.374;2023-02-11T17:23:08;20.57;;;12.33;;
12437;SDS011;6283;51.330;12.374;2023-02-11T17:25:34;20.40;;;12.93;;
12437;SDS011;6283;51.330;12.374;2023-02-11T17:28:01;22.70;;;12.97;;
12437;SDS011;6283;51.330;12.374;2023-02-11T17:30:31;23.30;;;13.70;;